sensor_id;sensor_type;location;lat;lon;timestamp;temperature;humidity
3794;DHT22;1912;51.358;12.282;2023-09-19T00:02:17;18.00;1.00
3794;DHT22;1912;51.358;12.282;2023-09-19T00:04:43;18.00;1.00
3794;DHT22;1912;51.358;12.282;2023-09-19T00:07:09;18.00;1.00
3794;DHT22;1912;51.358;12.282;2023-09-19T00:09:35;18.00;1.00
3794;DHT22;1912;51.358;12.282;2023-09-19T00:12:06;17.90;1.00
3794;DHT22;1912;51.358;12.282;2023-09-19T00:14:34;17.90;1.00
3794;DHT22;1912;51.358;12.282;2023-09-19T00:17:01;17.80;1.00
3794;DHT22;1912;51.358;12.282;2023-09-19T00:19:31;17.70;1.00
3794;DHT22;1912;51.358;12.282;2023-09-19T00:21:58;17.60;1.00
3794;DHT22;1912;51.358;12.282;2023-09-19T00:24:23;17.60;1.00
3794;DHT22;1912;51.358;12.282;2023-09-19T00:26:49;17.50;1.00
3794;DHT22;1912;51.358;12.282;2023-09-19T00:29:15;17.50;1.00
3794;DHT22;1912;51.358;12.282;2023-09-19T00:31:44;17.40;1.00
3794;DHT22;1912;51.358;12.282;2023-09-19T00:34:10;17.40;1.00
3794;DHT22;1912;51.358;12.282;2023-09-19T00:36:39;17.40;1.00
3794;DHT22;1912;51.358;12.282;2023-09-19T00:39:05;17.40;1.00
3794;DHT22;1912;51.358;12.282;2023-09-19T00:41:32;17.40;1.00
3794;DHT22;1912;51.358;12.282;2023-09-19T00:44:01;17.40;1.00
3794;DHT22;1912;51.358;12.282;2023-09-19T00:46:27;17.40;1.00
3794;DHT22;1912;51.358;12.282;2023-09-19T00:48:53;17.30;1.00
3794;DHT22;1912;51.358;12.282;2023-09-19T00:51:20;17.40;1.00
3794;DHT22;1912;51.358;12.282;2023-09-19T00:53:47;17.40;1.00
3794;DHT22;1912;51.358;12.282;2023-09-19T00:56:14;17.30;1.00
3794;DHT22;1912;51.358;12.282;2023-09-19T00:58:44;17.30;1.00
3794;DHT22;1912;51.358;12.282;2023-09-19T01:01:12;17.30;1.00
3794;DHT22;1912;51.358;12.282;2023-09-19T01:03:40;17.20;1.00
3794;DHT22;1912;51.358;12.282;2023-09-19T01:06:07;17.20;1.00
3794;DHT22;1912;51.358;12.282;2023-09-19T01:08:34;17.30;1.00
3794;DHT22;1912;51.358;12.282;2023-09-19T01:11:20;17.30;1.00
3794;DHT22;1912;51.358;12.282;2023-09-19T01:14:06;17.30;1.00
3794;DHT22;1912;51.358;12.282;2023-09-19T01:16:48;17.30;1.00
3794;DHT22;1912;51.358;12.282;2023-09-19T01:22:26;17.20;1.00
3794;DHT22;1912;51.358;12.282;2023-09-19T01:31:02;17.30;1.00
3794;DHT22;1912;51.358;12.282;2023-09-19T01:33:53;17.30;1.00
3794;DHT22;1912;51.358;12.282;2023-09-19T01:36:22;17.20;1.00
3794;DHT22;1912;51.358;12.282;2023-09-19T01:38:50;17.30;1.00
3794;DHT22;1912;51.358;12.282;2023-09-19T01:41:26;17.30;1.00
3794;DHT22;1912;51.358;12.282;2023-09-19T01:44:17;17.40;1.00
3794;DHT22;1912;51.358;12.282;2023-09-19T01:46:48;17.40;1.00
3794;DHT22;1912;51.358;12.282;2023-09-19T01:49:26;17.40;1.00
3794;DHT22;1912;51.358;12.282;2023-09-19T01:54:52;17.40;1.00
3794;DHT22;1912;51.358;12.282;2023-09-19T01:57:30;17.40;1.00
3794;DHT22;1912;51.358;12.282;2023-09-19T02:00:06;17.40;1.00
3794;DHT22;1912;51.358;12.282;2023-09-19T02:02:36;17.40;1.00
3794;DHT22;1912;51.358;12.282;2023-09-19T02:05:04;17.40;1.00
3794;DHT22;1912;51.358;12.282;2023-09-19T03:45:16;17.30;1.00
3794;DHT22;1912;51.358;12.282;2023-09-19T03:47:43;17.30;1.00
3794;DHT22;1912;51.358;12.282;2023-09-19T03:50:09;17.30;1.00
3794;DHT22;1912;51.358;12.282;2023-09-19T03:52:40;17.30;1.00
3794;DHT22;1912;51.358;12.282;2023-09-19T03:55:06;17.30;1.00
3794;DHT22;1912;51.358;12.282;2023-09-19T03:57:32;17.30;1.00
3794;DHT22;1912;51.358;12.282;2023-09-19T04:00:01;17.30;1.00
3794;DHT22;1912;51.358;12.282;2023-09-19T04:02:28;17.20;1.00
3794;DHT22;1912;51.358;12.282;2023-09-19T04:04:58;17.30;1.00
3794;DHT22;1912;51.358;12.282;2023-09-19T04:07:24;17.30;1.00
3794;DHT22;1912;51.358;12.282;2023-09-19T04:09:54;17.20;1.00
3794;DHT22;1912;51.358;12.282;2023-09-19T04:12:20;17.20;1.00
3794;DHT22;1912;51.358;12.282;2023-09-19T04:14:46;17.20;1.00
3794;DHT22;1912;51.358;12.282;2023-09-19T04:17:12;17.20;1.00
3794;DHT22;1912;51.358;12.282;2023-09-19T04:19:37;17.10;1.00
3794;DHT22;1912;51.358;12.282;2023-09-19T04:22:03;17.20;1.00
3794;DHT22;1912;51.358;12.282;2023-09-19T04:24:29;17.20;1.00
3794;DHT22;1912;51.358;12.282;2023-09-19T04:26:55;17.20;1.00
3794;DHT22;1912;51.358;12.282;2023-09-19T04:29:22;17.20;1.00
3794;DHT22;1912;51.358;12.282;2023-09-19T04:31:48;17.20;1.00
3794;DHT22;1912;51.358;12.282;2023-09-19T04:34:13;17.20;1.00
3794;DHT22;1912;51.358;12.282;2023-09-19T04:36:42;17.20;1.00
3794;DHT22;1912;51.358;12.282;2023-09-19T04:39:08;17.10;1.00
3794;DHT22;1912;51.358;12.282;2023-09-19T04:41:36;17.10;1.00
3794;DHT22;1912;51.358;12.282;2023-09-19T04:44:05;17.00;1.00
3794;DHT22;1912;51.358;12.282;2023-09-19T04:46:31;17.00;1.00
3794;DHT22;1912;51.358;12.282;2023-09-19T04:48:56;17.00;1.00
3794;DHT22;1912;51.358;12.282;2023-09-19T04:51:23;16.90;1.00
3794;DHT22;1912;51.358;12.282;2023-09-19T04:53:48;16.90;1.00
3794;DHT22;1912;51.358;12.282;2023-09-19T04:56:14;16.80;1.00
3794;DHT22;1912;51.358;12.282;2023-09-19T04:58:40;16.80;1.00
3794;DHT22;1912;51.358;12.282;2023-09-19T05:01:06;16.80;1.00
3794;DHT22;1912;51.358;12.282;2023-09-19T05:03:36;16.70;1.00
3794;DHT22;1912;51.358;12.282;2023-09-19T05:06:02;16.70;1.00
3794;DHT22;1912;51.358;12.282;2023-09-19T05:08:30;16.60;1.00
3794;DHT22;1912;51.358;12.282;2023-09-19T05:10:56;16.60;1.00
3794;DHT22;1912;51.358;12.282;2023-09-19T05:13:22;16.60;1.00
3794;DHT22;1912;51.358;12.282;2023-09-19T05:15:50;16.60;1.00
3794;DHT22;1912;51.358;12.282;2023-09-19T05:18:16;16.60;1.00
3794;DHT22;1912;51.358;12.282;2023-09-19T05:20:42;16.60;1.00
3794;DHT22;1912;51.358;12.282;2023-09-19T05:23:08;16.60;1.00
3794;DHT22;1912;51.358;12.282;2023-09-19T05:25:38;16.60;1.00
3794;DHT22;1912;51.358;12.282;2023-09-19T05:28:11;16.50;1.00
3794;DHT22;1912;51.358;12.282;2023-09-19T05:30:40;16.50;1.00
3794;DHT22;1912;51.358;12.282;2023-09-19T05:33:08;16.40;1.00
3794;DHT22;1912;51.358;12.282;2023-09-19T05:35:34;16.50;1.00
3794;DHT22;1912;51.358;12.282;2023-09-19T05:38:03;16.40;1.00
3794;DHT22;1912;51.358;12.282;2023-09-19T05:40:30;16.40;1.00
3794;DHT22;1912;51.358;12.282;2023-09-19T05:42:56;16.40;1.00
3794;DHT22;1912;51.358;12.282;2023-09-19T05:45:22;16.40;1.00
3794;DHT22;1912;51.358;12.282;2023-09-19T05:47:49;16.40;1.00
3794;DHT22;1912;51.358;12.282;2023-09-19T05:50:16;16.30;1.00
3794;DHT22;1912;51.358;12.282;2023-09-19T05:52:42;16.30;1.00
3794;DHT22;1912;51.358;12.282;2023-09-19T05:55:09;16.30;1.00
3794;DHT22;1912;51.358;12.282;2023-09-19T05:57:36;16.40;1.00
3794;DHT22;1912;51.358;12.282;2023-09-19T06:00:08;16.30;1.00
3794;DHT22;1912;51.358;12.282;2023-09-19T06:02:36;16.40;1.00
3794;DHT22;1912;51.358;12.282;2023-09-19T06:05:04;16.50;1.00
3794;DHT22;1912;51.358;12.282;2023-09-19T06:07:32;16.50;1.00
3794;DHT22;1912;51.358;12.282;2023-09-19T06:10:03;16.60;1.00
3794;DHT22;1912;51.358;12.282;2023-09-19T06:12:31;16.60;1.00
3794;DHT22;1912;51.358;12.282;2023-09-19T06:15:03;16.80;1.00
3794;DHT22;1912;51.358;12.282;2023-09-19T06:17:31;16.90;1.00
3794;DHT22;1912;51.358;12.282;2023-09-19T06:19:56;17.10;1.00
3794;DHT22;1912;51.358;12.282;2023-09-19T06:22:22;17.40;1.00
3794;DHT22;1912;51.358;12.282;2023-09-19T06:24:49;17.60;1.00
3794;DHT22;1912;51.358;12.282;2023-09-19T06:27:15;17.80;1.00
3794;DHT22;1912;51.358;12.282;2023-09-19T06:29:41;18.00;1.00
3794;DHT22;1912;51.358;12.282;2023-09-19T06:32:08;18.30;1.00
3794;DHT22;1912;51.358;12.282;2023-09-19T06:34:37;18.30;1.00
3794;DHT22;1912;51.358;12.282;2023-09-19T06:37:08;18.60;1.00
3794;DHT22;1912;51.358;12.282;2023-09-19T06:39:34;18.80;1.00
3794;DHT22;1912;51.358;12.282;2023-09-19T06:42:00;19.20;1.00
3794;DHT22;1912;51.358;12.282;2023-09-19T06:44:27;19.20;1.00
3794;DHT22;1912;51.358;12.282;2023-09-19T06:46:53;19.30;1.00
3794;DHT22;1912;51.358;12.282;2023-09-19T06:49:19;19.50;1.00
3794;DHT22;1912;51.358;12.282;2023-09-19T06:51:45;19.60;1.00
3794;DHT22;1912;51.358;12.282;2023-09-19T06:54:11;19.30;1.00
3794;DHT22;1912;51.358;12.282;2023-09-19T06:56:37;19.40;1.00
3794;DHT22;1912;51.358;12.282;2023-09-19T06:59:03;19.60;1.00
3794;DHT22;1912;51.358;12.282;2023-09-19T07:01:31;19.80;1.00
3794;DHT22;1912;51.358;12.282;2023-09-19T07:03:57;20.00;1.00
3794;DHT22;1912;51.358;12.282;2023-09-19T07:06:23;20.20;1.00
3794;DHT22;1912;51.358;12.282;2023-09-19T07:08:49;20.40;1.00
3794;DHT22;1912;51.358;12.282;2023-09-19T07:11:15;20.40;1.00
3794;DHT22;1912;51.358;12.282;2023-09-19T07:13:41;20.60;1.00
3794;DHT22;1912;51.358;12.282;2023-09-19T07:16:07;20.40;1.00
3794;DHT22;1912;51.358;12.282;2023-09-19T07:18:35;20.20;1.00
3794;DHT22;1912;51.358;12.282;2023-09-19T07:21:02;20.30;1.00
3794;DHT22;1912;51.358;12.282;2023-09-19T07:23:30;19.90;1.00
3794;DHT22;1912;51.358;12.282;2023-09-19T07:26:00;19.40;1.00
3794;DHT22;1912;51.358;12.282;2023-09-19T07:28:27;19.20;1.00
3794;DHT22;1912;51.358;12.282;2023-09-19T07:30:53;19.20;1.00
3794;DHT22;1912;51.358;12.282;2023-09-19T07:33:19;19.20;1.00
3794;DHT22;1912;51.358;12.282;2023-09-19T07:35:46;19.60;1.00
3794;DHT22;1912;51.358;12.282;2023-09-19T07:38:12;20.00;1.00
3794;DHT22;1912;51.358;12.282;2023-09-19T07:40:38;20.20;1.00
3794;DHT22;1912;51.358;12.282;2023-09-19T07:43:03;20.30;1.00
3794;DHT22;1912;51.358;12.282;2023-09-19T07:45:30;20.30;1.00
3794;DHT22;1912;51.358;12.282;2023-09-19T07:47:56;20.10;1.00
3794;DHT22;1912;51.358;12.282;2023-09-19T07:50:23;19.70;1.00
3794;DHT22;1912;51.358;12.282;2023-09-19T07:52:50;19.60;1.00
3794;DHT22;1912;51.358;12.282;2023-09-19T07:55:20;19.40;1.00
3794;DHT22;1912;51.358;12.282;2023-09-19T07:57:49;19.50;1.00
3794;DHT22;1912;51.358;12.282;2023-09-19T08:00:14;19.50;1.00
3794;DHT22;1912;51.358;12.282;2023-09-19T08:02:42;19.40;1.00
3794;DHT22;1912;51.358;12.282;2023-09-19T08:05:09;19.30;1.00
3794;DHT22;1912;51.358;12.282;2023-09-19T08:07:37;19.10;1.00
3794;DHT22;1912;51.358;12.282;2023-09-19T08:10:07;19.00;1.00
3794;DHT22;1912;51.358;12.282;2023-09-19T08:12:34;18.90;1.00
3794;DHT22;1912;51.358;12.282;2023-09-19T08:15:03;18.90;1.00
3794;DHT22;1912;51.358;12.282;2023-09-19T08:17:39;18.90;1.00
3794;DHT22;1912;51.358;12.282;2023-09-19T08:20:06;18.90;1.00
3794;DHT22;1912;51.358;12.282;2023-09-19T08:22:32;18.80;1.00
3794;DHT22;1912;51.358;12.282;2023-09-19T08:24:58;18.80;1.00
3794;DHT22;1912;51.358;12.282;2023-09-19T08:27:24;18.80;1.00
3794;DHT22;1912;51.358;12.282;2023-09-19T08:29:53;18.80;1.00
3794;DHT22;1912;51.358;12.282;2023-09-19T08:32:19;18.80;1.00
3794;DHT22;1912;51.358;12.282;2023-09-19T08:34:50;18.80;1.00
3794;DHT22;1912;51.358;12.282;2023-09-19T08:37:15;18.90;1.00
3794;DHT22;1912;51.358;12.282;2023-09-19T08:39:42;19.00;1.00
3794;DHT22;1912;51.358;12.282;2023-09-19T08:42:08;19.00;1.00
3794;DHT22;1912;51.358;12.282;2023-09-19T08:44:37;19.00;1.00
3794;DHT22;1912;51.358;12.282;2023-09-19T08:47:15;18.90;1.00
3794;DHT22;1912;51.358;12.282;2023-09-19T08:50:18;19.00;1.00
3794;DHT22;1912;51.358;12.282;2023-09-19T08:52:47;19.30;1.00
3794;DHT22;1912;51.358;12.282;2023-09-19T08:55:19;19.30;1.00
3794;DHT22;1912;51.358;12.282;2023-09-19T08:57:49;19.50;1.00
3794;DHT22;1912;51.358;12.282;2023-09-19T09:00:16;19.60;1.00
3794;DHT22;1912;51.358;12.282;2023-09-19T09:02:49;19.90;1.00
3794;DHT22;1912;51.358;12.282;2023-09-19T09:05:15;20.00;1.00
3794;DHT22;1912;51.358;12.282;2023-09-19T09:07:48;19.80;1.00
3794;DHT22;1912;51.358;12.282;2023-09-19T09:10:18;20.10;1.00
3794;DHT22;1912;51.358;12.282;2023-09-19T09:12:47;20.40;1.00
3794;DHT22;1912;51.358;12.282;2023-09-19T09:15:15;20.50;1.00
3794;DHT22;1912;51.358;12.282;2023-09-19T09:17:42;20.40;1.00
3794;DHT22;1912;51.358;12.282;2023-09-19T09:20:08;20.40;1.00
3794;DHT22;1912;51.358;12.282;2023-09-19T09:22:35;20.50;1.00
3794;DHT22;1912;51.358;12.282;2023-09-19T09:25:05;20.60;1.00
3794;DHT22;1912;51.358;12.282;2023-09-19T09:27:31;20.70;1.00
3794;DHT22;1912;51.358;12.282;2023-09-19T09:29:58;20.60;1.00
3794;DHT22;1912;51.358;12.282;2023-09-19T09:32:24;20.50;1.00
3794;DHT22;1912;51.358;12.282;2023-09-19T09:34:58;20.70;1.00
3794;DHT22;1912;51.358;12.282;2023-09-19T09:37:26;20.60;1.00
3794;DHT22;1912;51.358;12.282;2023-09-19T09:39:56;20.80;1.00
3794;DHT22;1912;51.358;12.282;2023-09-19T09:42:36;20.80;1.00
3794;DHT22;1912;51.358;12.282;2023-09-19T09:45:18;20.90;1.00
3794;DHT22;1912;51.358;12.282;2023-09-19T09:48:02;21.00;1.00
3794;DHT22;1912;51.358;12.282;2023-09-19T09:50:36;21.20;1.00
3794;DHT22;1912;51.358;12.282;2023-09-19T09:53:29;21.00;1.00
3794;DHT22;1912;51.358;12.282;2023-09-19T09:55:58;21.10;1.00
3794;DHT22;1912;51.358;12.282;2023-09-19T09:58:25;20.90;1.00
3794;DHT22;1912;51.358;12.282;2023-09-19T10:00:58;20.80;1.00
3794;DHT22;1912;51.358;12.282;2023-09-19T10:03:38;20.80;1.00
3794;DHT22;1912;51.358;12.282;2023-09-19T10:06:12;20.60;1.00
3794;DHT22;1912;51.358;12.282;2023-09-19T10:09:07;20.80;1.00
3794;DHT22;1912;51.358;12.282;2023-09-19T10:11:43;20.70;1.00
3794;DHT22;1912;51.358;12.282;2023-09-19T10:14:15;20.50;1.00
3794;DHT22;1912;51.358;12.282;2023-09-19T10:16:48;20.60;1.00
3794;DHT22;1912;51.358;12.282;2023-09-19T10:19:29;20.50;1.00
3794;DHT22;1912;51.358;12.282;2023-09-19T10:22:00;20.60;1.00
3794;DHT22;1912;51.358;12.282;2023-09-19T10:24:28;20.50;1.00
3794;DHT22;1912;51.358;12.282;2023-09-19T10:26:55;20.70;1.00
3794;DHT22;1912;51.358;12.282;2023-09-19T10:29:21;20.80;1.00
3794;DHT22;1912;51.358;12.282;2023-09-19T10:31:52;20.70;1.00
3794;DHT22;1912;51.358;12.282;2023-09-19T10:34:19;20.80;1.00
3794;DHT22;1912;51.358;12.282;2023-09-19T10:36:46;20.70;1.00
3794;DHT22;1912;51.358;12.282;2023-09-19T10:39:15;20.90;1.00
3794;DHT22;1912;51.358;12.282;2023-09-19T10:41:51;20.80;1.00
3794;DHT22;1912;51.358;12.282;2023-09-19T10:44:32;20.70;1.00
3794;DHT22;1912;51.358;12.282;2023-09-19T10:46:58;20.90;1.00
3794;DHT22;1912;51.358;12.282;2023-09-19T10:49:25;20.90;1.00
3794;DHT22;1912;51.358;12.282;2023-09-19T10:51:55;21.20;1.00
3794;DHT22;1912;51.358;12.282;2023-09-19T10:54:27;21.50;1.00
3794;DHT22;1912;51.358;12.282;2023-09-19T10:56:55;21.70;1.00
3794;DHT22;1912;51.358;12.282;2023-09-19T10:59:24;21.50;1.00
3794;DHT22;1912;51.358;12.282;2023-09-19T11:01:57;21.70;1.00
3794;DHT22;1912;51.358;12.282;2023-09-19T11:04:24;21.90;1.00
3794;DHT22;1912;51.358;12.282;2023-09-19T11:07:00;22.00;1.00
3794;DHT22;1912;51.358;12.282;2023-09-19T11:12:47;22.10;1.00
3794;DHT22;1912;51.358;12.282;2023-09-19T11:26:45;22.70;1.00
3794;DHT22;1912;51.358;12.282;2023-09-19T11:29:29;22.30;1.00
3794;DHT22;1912;51.358;12.282;2023-09-19T11:31:57;22.40;1.00
3794;DHT22;1912;51.358;12.282;2023-09-19T11:39:40;22.60;1.00
3794;DHT22;1912;51.358;12.282;2023-09-19T11:42:46;22.60;1.00
3794;DHT22;1912;51.358;12.282;2023-09-19T11:48:23;23.00;1.00
3794;DHT22;1912;51.358;12.282;2023-09-19T11:50:53;23.40;1.00
3794;DHT22;1912;51.358;12.282;2023-09-19T11:53:20;22.80;1.00
3794;DHT22;1912;51.358;12.282;2023-09-19T11:55:46;23.00;1.00
3794;DHT22;1912;51.358;12.282;2023-09-19T11:58:15;22.80;1.00
3794;DHT22;1912;51.358;12.282;2023-09-19T12:00:44;23.10;1.00
3794;DHT22;1912;51.358;12.282;2023-09-19T12:03:11;23.20;1.00
3794;DHT22;1912;51.358;12.282;2023-09-19T12:05:39;22.90;1.00
3794;DHT22;1912;51.358;12.282;2023-09-19T12:08:05;22.50;1.00
3794;DHT22;1912;51.358;12.282;2023-09-19T12:10:48;22.70;1.00
3794;DHT22;1912;51.358;12.282;2023-09-19T12:13:20;22.20;1.00
3794;DHT22;1912;51.358;12.282;2023-09-19T12:15:46;22.10;1.00
3794;DHT22;1912;51.358;12.282;2023-09-19T12:18:30;21.70;1.00
3794;DHT22;1912;51.358;12.282;2023-09-19T12:20:56;21.90;1.00
3794;DHT22;1912;51.358;12.282;2023-09-19T12:23:23;22.10;1.00
3794;DHT22;1912;51.358;12.282;2023-09-19T12:25:51;22.80;1.00
3794;DHT22;1912;51.358;12.282;2023-09-19T12:28:19;23.00;1.00
3794;DHT22;1912;51.358;12.282;2023-09-19T12:30:47;23.10;1.00
3794;DHT22;1912;51.358;12.282;2023-09-19T12:33:20;23.20;1.00
3794;DHT22;1912;51.358;12.282;2023-09-19T12:35:47;23.00;1.00
3794;DHT22;1912;51.358;12.282;2023-09-19T12:38:28;22.80;1.00
3794;DHT22;1912;51.358;12.282;2023-09-19T12:40:57;22.80;1.00
3794;DHT22;1912;51.358;12.282;2023-09-19T12:43:25;23.00;1.00
3794;DHT22;1912;51.358;12.282;2023-09-19T12:45:52;23.10;1.00
3794;DHT22;1912;51.358;12.282;2023-09-19T12:48:22;23.00;1.00
3794;DHT22;1912;51.358;12.282;2023-09-19T12:51:06;23.40;1.00
3794;DHT22;1912;51.358;12.282;2023-09-19T12:53:43;23.60;1.00
3794;DHT22;1912;51.358;12.282;2023-09-19T12:56:11;23.40;1.00
3794;DHT22;1912;51.358;12.282;2023-09-19T12:58:58;23.20;1.00
3794;DHT22;1912;51.358;12.282;2023-09-19T13:01:28;23.30;1.00
3794;DHT22;1912;51.358;12.282;2023-09-19T13:04:16;23.30;1.00
3794;DHT22;1912;51.358;12.282;2023-09-19T13:06:52;23.30;1.00
3794;DHT22;1912;51.358;12.282;2023-09-19T13:09:19;23.20;1.00
3794;DHT22;1912;51.358;12.282;2023-09-19T13:11:46;23.50;1.00
3794;DHT22;1912;51.358;12.282;2023-09-19T13:19:45;23.50;1.00
3794;DHT22;1912;51.358;12.282;2023-09-19T13:22:36;23.40;1.00
3794;DHT22;1912;51.358;12.282;2023-09-19T13:25:12;23.20;1.00
3794;DHT22;1912;51.358;12.282;2023-09-19T13:27:45;22.90;1.00
3794;DHT22;1912;51.358;12.282;2023-09-19T13:30:14;22.90;1.00
3794;DHT22;1912;51.358;12.282;2023-09-19T13:32:41;22.70;1.00
3794;DHT22;1912;51.358;12.282;2023-09-19T13:35:08;23.40;1.00
3794;DHT22;1912;51.358;12.282;2023-09-19T13:37:39;23.40;1.00
3794;DHT22;1912;51.358;12.282;2023-09-19T13:42:35;23.80;1.00
3794;DHT22;1912;51.358;12.282;2023-09-19T13:45:03;24.00;1.00
3794;DHT22;1912;51.358;12.282;2023-09-19T13:47:30;23.80;1.00
3794;DHT22;1912;51.358;12.282;2023-09-19T13:49:56;23.70;1.00
3794;DHT22;1912;51.358;12.282;2023-09-19T13:52:22;23.80;1.00
3794;DHT22;1912;51.358;12.282;2023-09-19T13:54:52;23.80;1.00
3794;DHT22;1912;51.358;12.282;2023-09-19T13:57:18;24.00;1.00
3794;DHT22;1912;51.358;12.282;2023-09-19T13:59:44;24.20;1.00
3794;DHT22;1912;51.358;12.282;2023-09-19T14:02:11;23.90;1.00
3794;DHT22;1912;51.358;12.282;2023-09-19T14:04:36;24.00;1.00
3794;DHT22;1912;51.358;12.282;2023-09-19T14:07:02;23.90;1.00
3794;DHT22;1912;51.358;12.282;2023-09-19T14:09:29;23.60;1.00
3794;DHT22;1912;51.358;12.282;2023-09-19T14:11:55;23.80;1.00
3794;DHT22;1912;51.358;12.282;2023-09-19T14:14:22;23.90;1.00
3794;DHT22;1912;51.358;12.282;2023-09-19T14:16:48;24.00;1.00
3794;DHT22;1912;51.358;12.282;2023-09-19T14:19:14;23.70;1.00
3794;DHT22;1912;51.358;12.282;2023-09-19T14:21:42;23.40;1.00
3794;DHT22;1912;51.358;12.282;2023-09-19T14:24:08;23.30;1.00
3794;DHT22;1912;51.358;12.282;2023-09-19T14:26:38;23.40;1.00
3794;DHT22;1912;51.358;12.282;2023-09-19T14:29:05;23.70;1.00
3794;DHT22;1912;51.358;12.282;2023-09-19T14:31:33;24.00;1.00
3794;DHT22;1912;51.358;12.282;2023-09-19T14:33:59;23.80;1.00
3794;DHT22;1912;51.358;12.282;2023-09-19T14:36:26;24.00;1.00
3794;DHT22;1912;51.358;12.282;2023-09-19T14:38:55;24.00;1.00
3794;DHT22;1912;51.358;12.282;2023-09-19T14:41:22;23.80;1.00
3794;DHT22;1912;51.358;12.282;2023-09-19T14:43:51;24.00;1.00
3794;DHT22;1912;51.358;12.282;2023-09-19T14:46:17;23.80;1.00
3794;DHT22;1912;51.358;12.282;2023-09-19T14:48:44;23.90;1.00
3794;DHT22;1912;51.358;12.282;2023-09-19T14:51:13;23.90;1.00
3794;DHT22;1912;51.358;12.282;2023-09-19T14:53:40;24.00;1.00
3794;DHT22;1912;51.358;12.282;2023-09-19T14:56:08;24.00;1.00
3794;DHT22;1912;51.358;12.282;2023-09-19T14:58:35;23.60;1.00
3794;DHT22;1912;51.358;12.282;2023-09-19T15:01:09;23.40;1.00
3794;DHT22;1912;51.358;12.282;2023-09-19T15:03:36;23.40;1.00
3794;DHT22;1912;51.358;12.282;2023-09-19T15:06:03;23.40;1.00
3794;DHT22;1912;51.358;12.282;2023-09-19T15:08:33;23.20;1.00
3794;DHT22;1912;51.358;12.282;2023-09-19T15:11:01;23.30;1.00
3794;DHT22;1912;51.358;12.282;2023-09-19T15:13:30;23.50;1.00
3794;DHT22;1912;51.358;12.282;2023-09-19T15:16:03;23.40;1.00
3794;DHT22;1912;51.358;12.282;2023-09-19T15:18:30;23.40;1.00
3794;DHT22;1912;51.358;12.282;2023-09-19T15:20:56;23.40;1.00
3794;DHT22;1912;51.358;12.282;2023-09-19T15:23:25;23.40;1.00
3794;DHT22;1912;51.358;12.282;2023-09-19T15:25:51;23.30;1.00
3794;DHT22;1912;51.358;12.282;2023-09-19T15:28:17;23.20;1.00
3794;DHT22;1912;51.358;12.282;2023-09-19T15:30:43;23.40;1.00
3794;DHT22;1912;51.358;12.282;2023-09-19T15:33:09;23.30;1.00
3794;DHT22;1912;51.358;12.282;2023-09-19T15:35:36;23.00;1.00
3794;DHT22;1912;51.358;12.282;2023-09-19T15:38:03;23.00;1.00
3794;DHT22;1912;51.358;12.282;2023-09-19T15:40:29;22.80;1.00
3794;DHT22;1912;51.358;12.282;2023-09-19T15:42:55;22.80;1.00
3794;DHT22;1912;51.358;12.282;2023-09-19T15:45:23;22.80;1.00
3794;DHT22;1912;51.358;12.282;2023-09-19T15:47:50;22.80;1.00
3794;DHT22;1912;51.358;12.282;2023-09-19T15:50:16;22.70;1.00
3794;DHT22;1912;51.358;12.282;2023-09-19T15:52:42;22.80;1.00
3794;DHT22;1912;51.358;12.282;2023-09-19T15:55:09;22.60;1.00
3794;DHT22;1912;51.358;12.282;2023-09-19T15:57:38;22.60;1.00
3794;DHT22;1912;51.358;12.282;2023-09-19T16:00:06;22.60;1.00
3794;DHT22;1912;51.358;12.282;2023-09-19T16:02:42;22.60;1.00
3794;DHT22;1912;51.358;12.282;2023-09-19T16:05:10;22.40;1.00
3794;DHT22;1912;51.358;12.282;2023-09-19T16:07:37;22.40;1.00
3794;DHT22;1912;51.358;12.282;2023-09-19T16:10:03;22.40;1.00
3794;DHT22;1912;51.358;12.282;2023-09-19T16:12:29;22.40;1.00
3794;DHT22;1912;51.358;12.282;2023-09-19T16:14:56;22.40;1.00
3794;DHT22;1912;51.358;12.282;2023-09-19T16:17:22;22.30;1.00
3794;DHT22;1912;51.358;12.282;2023-09-19T16:19:47;22.10;1.00
3794;DHT22;1912;51.358;12.282;2023-09-19T16:22:13;21.90;1.00
3794;DHT22;1912;51.358;12.282;2023-09-19T16:24:39;21.90;1.00
3794;DHT22;1912;51.358;12.282;2023-09-19T16:27:05;21.80;1.00
3794;DHT22;1912;51.358;12.282;2023-09-19T16:29:31;21.70;1.00
3794;DHT22;1912;51.358;12.282;2023-09-19T16:31:57;21.50;1.00
3794;DHT22;1912;51.358;12.282;2023-09-19T16:34:22;21.40;1.00
3794;DHT22;1912;51.358;12.282;2023-09-19T16:36:48;21.40;1.00
3794;DHT22;1912;51.358;12.282;2023-09-19T16:39:14;21.30;1.00
3794;DHT22;1912;51.358;12.282;2023-09-19T16:41:40;21.30;1.00
3794;DHT22;1912;51.358;12.282;2023-09-19T16:44:07;21.20;1.00
3794;DHT22;1912;51.358;12.282;2023-09-19T16:46:33;21.10;1.00
3794;DHT22;1912;51.358;12.282;2023-09-19T16:48:59;21.00;1.00
3794;DHT22;1912;51.358;12.282;2023-09-19T16:51:25;20.90;1.00
3794;DHT22;1912;51.358;12.282;2023-09-19T16:53:52;20.80;1.00
3794;DHT22;1912;51.358;12.282;2023-09-19T16:56:20;20.80;1.00
3794;DHT22;1912;51.358;12.282;2023-09-19T16:58:47;20.60;1.00
3794;DHT22;1912;51.358;12.282;2023-09-19T17:01:15;20.60;1.00
3794;DHT22;1912;51.358;12.282;2023-09-19T17:03:44;20.50;1.00
3794;DHT22;1912;51.358;12.282;2023-09-19T17:06:11;20.30;1.00
3794;DHT22;1912;51.358;12.282;2023-09-19T17:08:42;20.20;1.00
3794;DHT22;1912;51.358;12.282;2023-09-19T17:11:15;20.10;1.00
3794;DHT22;1912;51.358;12.282;2023-09-19T17:13:43;20.00;1.00
3794;DHT22;1912;51.358;12.282;2023-09-19T17:16:13;19.90;1.00
3794;DHT22;1912;51.358;12.282;2023-09-19T17:18:45;19.80;1.00
3794;DHT22;1912;51.358;12.282;2023-09-19T17:21:11;19.70;1.00
3794;DHT22;1912;51.358;12.282;2023-09-19T17:23:38;19.60;1.00
3794;DHT22;1912;51.358;12.282;2023-09-19T17:26:07;19.60;1.00
3794;DHT22;1912;51.358;12.282;2023-09-19T17:28:38;19.50;1.00
3794;DHT22;1912;51.358;12.282;2023-09-19T17:31:12;19.40;1.00
3794;DHT22;1912;51.358;12.282;2023-09-19T17:33:43;19.40;1.00
3794;DHT22;1912;51.358;12.282;2023-09-19T17:36:36;19.30;1.00
3794;DHT22;1912;51.358;12.282;2023-09-19T17:39:02;19.30;1.00
3794;DHT22;1912;51.358;12.282;2023-09-19T17:41:30;19.20;1.00
3794;DHT22;1912;51.358;12.282;2023-09-19T17:43:58;19.20;1.00
3794;DHT22;1912;51.358;12.282;2023-09-19T17:46:25;19.10;1.00
3794;DHT22;1912;51.358;12.282;2023-09-19T17:48:53;19.00;1.00
3794;DHT22;1912;51.358;12.282;2023-09-19T17:51:20;19.00;1.00
3794;DHT22;1912;51.358;12.282;2023-09-19T17:53:46;18.80;1.00
3794;DHT22;1912;51.358;12.282;2023-09-19T17:56:14;18.70;1.00
3794;DHT22;1912;51.358;12.282;2023-09-19T17:58:41;18.60;1.00
3794;DHT22;1912;51.358;12.282;2023-09-19T18:01:16;18.40;1.00
3794;DHT22;1912;51.358;12.282;2023-09-19T18:03:47;18.30;1.00
3794;DHT22;1912;51.358;12.282;2023-09-19T18:06:13;18.20;1.00
3794;DHT22;1912;51.358;12.282;2023-09-19T18:08:40;18.00;1.00
3794;DHT22;1912;51.358;12.282;2023-09-19T18:11:15;17.90;1.00
3794;DHT22;1912;51.358;12.282;2023-09-19T18:13:42;17.80;1.00
3794;DHT22;1912;51.358;12.282;2023-09-19T18:16:10;17.70;1.00
3794;DHT22;1912;51.358;12.282;2023-09-19T18:18:36;17.70;1.00
3794;DHT22;1912;51.358;12.282;2023-09-19T18:21:03;17.60;1.00
3794;DHT22;1912;51.358;12.282;2023-09-19T18:23:30;17.50;1.00
3794;DHT22;1912;51.358;12.282;2023-09-19T18:25:57;17.50;1.00
3794;DHT22;1912;51.358;12.282;2023-09-19T18:28:23;17.40;1.00
3794;DHT22;1912;51.358;12.282;2023-09-19T18:30:49;17.40;1.00
3794;DHT22;1912;51.358;12.282;2023-09-19T18:33:15;17.30;1.00
3794;DHT22;1912;51.358;12.282;2023-09-19T18:35:41;17.20;1.00